Tizayuca Airport

Jump to: basic info | weather | runways | comments

Related pages: nearby airports | nearby navaids | notams | map

Basic information (top)

Codes: MM28
Location: lon 19.874001, lat -98.943604, elev 7,600 ft / 2,316 m msl
Status: small_airport

Weather (top)

Current conditions for Licenciado Benito Juarez International Airport 27nm (50km) SSW (rec'd 2014/07/28 21:41Z):

MMMX 282141Z 04008KT 6SM BKN020TCU 23/07 A3034 NOSIG RMK 8/200 HZY AC

Airport forecast for Licenciado Benito Juarez International Airport 27nm (50km) SSW (rec'd 2014/07/28 18:28Z):

TAF MMMX 281722Z 2818/2924 04010KT P6SM BKN025 TX24/2821Z TN14/2912Z 
     FM282100 04010G20KT P6SM BKN030CB 
      TEMPO 2822/2902 3SM TSRA OVC015CB 
     FM290200 04010KT 5SM TSRA BKN025CB 
     FM290400 04010KT P6SM SCT020 BKN100 
      TEMPO 2912/2916 3SM BR BKN015 
     FM291600 04010KT P6SM SCT025 PROB40 2920/2924 3SM TSRA BKN020CB

Runways (top)

01/19: 4,235 x 80 ft (1,291 x 24 m) — paved — not lighted

Latest comments (top)

No comments yet for Tizayuca Airport

More... (top)

See also NOTAMs and nearby airports and navaids, or visit the Tizayuca Airport page at the main OurAirports website..